Guilherme Pacheco

Chefscout - Bahia
4 Apr 2027
Sonntag
Verarbeitung

Persönlichkeit

Anpassungsfähigkeit (10) Ehrgeiz (11) Kontroverse (10) Loyalität (3) Druck (10) Professionalität (18) Fairness (5) Temperament (4)

Profil

Trainerstil Demokratisch
Lizenz Nationale B
Entschlossenheit 9
Menschenführung 11
Motivation 9
Disziplin 7
Arbeitszufriedenheit
68%
Ermüdung
0%
Rolle Chefscout
Gehalt 33.0K p/W
Vertrag 14.03.2030

Leistung

Verhalten Gut
Trainingseffektivität
37%
Spielerentwicklung
30%
Verletzungsprävention
30%
Taktische Umsetzung
55%

Letzte Ereignisse

Spieler begutachtet jetzt
Nahm an einer Scouting-Besprechung teil jetzt
Spieler begutachtet jetzt
Spieler begutachtet jetzt
Spieler begutachtet 7T her
Spieler begutachtet 7T her
Spieler begutachtet 7T her
Spieler begutachtet 7T her

Aktuell beobachtet

176
Spieler Verein Status Fähigkeit Vertrauen Beobachtet Zuletzt beobachtet Letzte Stimme
Efraín Álvarez Guadalajara Aktiv 127 / 125 40% 8 02.04.2027 -
Malik Mothersille Stockport County Aktiv 102 / 117 40% 1 02.04.2027 -
Miguel Falé Pacos de Ferreira Aktiv 91 / 100 40% 4 01.04.2027 -
Sam Greenwood Bristol City Aktiv 112 / 124 40% 2 01.04.2027 -
Josh Coburn Millwall Aktiv 121 / 111 40% 4 31.03.2027 -
Yanis Begraoui Estoril Praia Aktiv 129 / 129 40% 4 30.03.2027 -
Itumeleng Tau Ajax Cape Town Aktiv 118 / 118 40% 4 30.03.2027 -
Vinícius Lopes Santa Clara Aktiv 115 / 111 40% 8 29.03.2027 -
Vinícius Lira Santos Aktiv 114 / 126 40% 4 28.03.2027 -
Florián Monzón Atlas Aktiv 126 / 118 40% 2 28.03.2027 -
Lennon Miller Udinese Aktiv 142 / 139 40% 1 28.03.2027 -
Lucas Duarte Felgueiras Aktiv 116 / 98 40% 3 26.03.2027 -
Jorge Aguirre Torreense Aktiv 95 / 95 40% 2 26.03.2027 -
Raúl Alcaina Penafiel Aktiv 100 / 102 40% 4 25.03.2027 -
Lorent Tolaj Plymouth Argyle Aktiv 122 / 111 40% 1 25.03.2027 -
Jorge Meireles AVS Aktiv 111 / 105 40% 2 24.03.2027 -
Diego Lainez Tigres Aktiv 121 / 122 40% 2 23.03.2027 -
Ibrahim Tarek Masr El Makasa Aktiv 120 / 119 40% 1 23.03.2027 -
Honest Ahanor Atalanta Aktiv 119 / 140 40% 1 23.03.2027 -
Bernardo Lima Porto Aktiv 89 / 105 40% 1 23.03.2027 -
Evidence Makgopa Orlando Pirates Aktiv 108 / 109 40% 6 20.03.2027 -
Bryan Limbombe Maritimo Aktiv 103 / 108 40% 2 20.03.2027 -
André Lacximicant Estoril Praia Aktiv 108 / 105 40% 3 19.03.2027 -
Mathias Jørgensen Blackburn Rovers Aktiv 113 / 114 40% 1 19.03.2027 -
Sydney van Hooijdonk Estrela da Amadora Aktiv 119 / 118 40% 2 18.03.2027 -
Aidomo Emakhu Oxford United Aktiv 135 / 125 40% 2 18.03.2027 -
Bryan González Guadalajara Aktiv 139 / 137 40% 1 18.03.2027 -
Ali Soliman Masr El Makasa Aktiv 142 / 116 40% 1 18.03.2027 -
Giorgos Koutsias Famalicao Aktiv 111 / 113 40% 7 17.03.2027 -
Adnan Courtois KV Oostende Aktiv 127 / 122 40% 2 17.03.2027 -
Iker Benito Queretaro Aktiv 141 / 129 40% 2 16.03.2027 -
Morgan Whittaker Middlesbrough Aktiv 125 / 132 40% 1 14.03.2027 -
Luccas Paraízo Leixões Aktiv 98 / 112 40% 3 13.03.2027 -
Rumarn Burrell Queens Park Rangers Aktiv 138 / 123 40% 1 13.03.2027 -
Eddy Doué Estrela da Amadora Aktiv 94 / 115 40% 1 12.03.2027 -
Dom Ballard Leyton Orient Aktiv 129 / 125 40% 3 11.03.2027 -
Jalen Blesa Rio Ave Aktiv 112 / 110 40% 3 10.03.2027 -
Mésaque Djú Portimonense Aktiv 99 / 96 40% 3 10.03.2027 -
Brayan León Mamelodi Sundowns Aktiv 108 / 113 40% 6 09.03.2027 -
Leandro Andrade Polissia Aktiv 142 / 131 40% 2 09.03.2027 -
Chiquinho Alverca Aktiv 136 / 130 40% 1 09.03.2027 -
Martín Tejón Maritimo Aktiv 123 / 121 40% 2 03.03.2027 -
Korede Osundina Casa Pia Aktiv 109 / 111 40% 8 01.03.2027 -
Stav Toriel Hapoel Tel Aviv Aktiv 134 / 128 40% 3 27.02.2027 -
Joaquin Seys Club Brugge Aktiv 117 / 129 40% 2 27.02.2027 -
Samy Merheg Alverca Aktiv 114 / 109 40% 1 27.02.2027 -
Tamble Monteiro Rio Ave Aktiv 130 / 120 40% 8 25.02.2027 -
José Bica Leixões Aktiv 111 / 110 40% 2 25.02.2027 -
Helinho Toluca Aktiv 137 / 138 40% 3 22.02.2027 -
Chris Rigg Sunderland Aktiv 140 / 133 40% 2 22.02.2027 -
Petar Stanić Ludogorets Aktiv 153 / 127 40% 1 22.02.2027 -
Daniel Banjaqui Benfica Aktiv 107 / 112 40% 1 22.02.2027 -
Danylo Sikan Anderlecht Aktiv 115 / 133 40% 1 20.02.2027 -
Etiosa Ighodaro Kaizer Chiefs Aktiv 119 / 111 40% 1 19.02.2027 -
Alfonso Trezza Arouca Aktiv 111 / 131 40% 5 18.02.2027 -
Brian Rodríguez Club America Aktiv 137 / 121 40% 2 18.02.2027 -
Salvador Blopá Sporting CP Aktiv 103 / 120 40% 1 15.02.2027 -
Matheus Dias Nacional Aktiv 116 / 131 40% 1 15.02.2027 -
Beni Mukendi Vitoria Guimaraes Aktiv 114 / 131 40% 1 12.02.2027 -
Eric Ramires Bragantino Aktiv 121 / 125 40% 1 12.02.2027 -
Alexandre Duville-Parsemain Moreirense Aktiv 117 / 107 40% 4 09.02.2027 -
Luís Guilherme Sporting CP Aktiv 123 / 133 40% 3 06.02.2027 -
Percy Erasmus SuperSport United Aktiv 118 / 120 40% 6 06.02.2027 -
Alan KAA Gent Aktiv 128 / 138 40% 1 06.02.2027 -
Miguel Figueiredo Benfica Aktiv 106 / 122 40% 1 04.02.2027 -
Camilo Durán Bloemfontein Celtic Aktiv 120 / 123 40% 4 29.01.2027 -
Ianis Stoica Estrela da Amadora Aktiv 107 / 121 40% 2 28.01.2027 -
João Costa Santa Clara Aktiv 111 / 115 40% 5 27.01.2027 -
Cesar Corona Veracruz Aktiv 140 / 138 40% 3 26.01.2027 -
Gustavo Silva Vitoria Guimaraes Aktiv 117 / 115 40% 5 24.01.2027 -
Michy Fellaini KV Oostende Abgelehnt 122 / 135 40% 4 22.01.2027 Ablehnen
Abraham Marcus Estrela da Amadora Aktiv 141 / 115 40% 1 22.01.2027 -
Yousef Salech Cardiff City Aktiv 117 / 121 40% 2 17.01.2027 -
Yassin Fortuné Vizela Aktiv 110 / 97 40% 1 17.01.2027 -
Marcos Paulo Juventude Aktiv 114 / 120 40% 2 15.01.2027 -
Facundo Torres Shakhtar Aktiv 130 / 135 40% 1 15.01.2027 -
Ricard Sánchez Estoril Praia Aktiv 121 / 131 40% 1 14.01.2027 -
Luciano Gondou CSKA Moscow Aktiv 113 / 122 40% 1 13.01.2027 -
Santi García Gil Vicente Abgelehnt 135 / 136 40% 1 07.01.2027 Mehr Infos nötig
Nathan Fogaça Fortaleza Aktiv 121 / 124 40% 1 05.01.2027 -
Nuno Moreira Vasco da Gama Aktiv 124 / 128 40% 1 05.01.2027 -
Marcel Ruiz Toluca Aktiv 150 / 142 40% 1 02.01.2027 -
Gabriel Barbosa Farense Aktiv 99 / 103 40% 1 26.12.2026 -
Reda Khadra Qarabag Abgelehnt 132 / 133 40% 1 26.12.2026 Mehr Infos nötig
Henry Mosquera Bragantino Abgelehnt 120 / 127 40% 1 03.12.2026 Mehr Infos nötig
Rodrigo Pinheiro Famalicao Aktiv 135 / 123 40% 1 03.12.2026 -
Gonçalo Oliveira Benfica Aktiv 103 / 118 40% 1 03.12.2026 -
José Manuel López Palmeiras Aktiv 132 / 138 40% 6 30.11.2026 -
Sorriso Famalicao Aktiv 139 / 127 40% 4 28.11.2026 -
Alexis Vega Toluca Aktiv 149 / 147 40% 2 28.11.2026 -
Zé Leite Oliveirense Aktiv 124 / 116 40% 4 27.11.2026 -
Ferreirinha Sport Recife Aktiv 133 / 123 40% 1 26.11.2026 -
Juan Diego Castillo Vitoria Guimaraes Aktiv 121 / 112 40% 3 25.11.2026 -
Gabriel Taliari Juventude Aktiv 117 / 120 40% 5 25.11.2026 -
Ruslan Neshcheret Dynamo Kyiv Aktiv 136 / 122 40% 3 25.11.2026 -
Killian Cahill Leyton Orient Aktiv 98 / 102 40% 2 21.11.2026 -
Myles Roberts Doncaster Rovers Aktiv 108 / 112 40% 1 20.11.2026 -
Pedro Flamengo Aktiv 148 / 140 40% 4 18.11.2026 -
Brenner Vasco da Gama Aktiv 136 / 128 40% 2 18.11.2026 -
Ismael Díaz Leon Abgelehnt 143 / 126 40% 3 17.11.2026 Ablehnen
Mateo Cassierra Atlético Mineiro Aktiv 134 / 134 40% 2 17.11.2026 -
Kaio Jorge Cruzeiro Abgelehnt 147 / 146 40% 1 14.11.2026 Mehr Infos nötig
Jason Januzaj Mouscron Aktiv 160 / 151 40% 1 13.11.2026 -
Chris Brady Chicago Fire Aktiv 125 / 142 40% 4 12.11.2026 -
Strahinja Manojlović Radnicki Nis Aktiv 114 / 118 40% 1 12.11.2026 -
Bernardo Fontes Braga Aktiv 141 / 127 40% 2 10.11.2026 -
Nicolás Bolcato Independiente Rivadavia Aktiv 104 / 115 40% 1 10.11.2026 -
Dylan Nandín Arouca Aktiv 97 / 119 40% 1 07.11.2026 -
Matthieu Epolo Standard Liege Aktiv 119 / 124 40% 1 07.11.2026 -
Lorenzo Palmisani Frosinone Aktiv 134 / 133 40% 1 07.11.2026 -
Óscar Aranda Espanyol Aktiv 141 / 134 40% 2 04.11.2026 -
Pablo Campos Levante Aktiv 116 / 126 40% 1 04.11.2026 -
Jonas Wind Braga Abgelehnt 150 / 130 40% 2 02.11.2026 Mehr Infos nötig
Paulinho Palmeiras Aktiv 149 / 140 40% 3 01.11.2026 -
Negueba Mirassol Aktiv 117 / 125 40% 2 31.10.2026 -
Arthur Cabral Botafogo Aktiv 123 / 123 40% 3 31.10.2026 -
Mohammed Bouldini Académico de Viseu Aktiv 111 / 123 40% 5 28.10.2026 -
Vitinho Internacional Aktiv 128 / 126 40% 3 27.10.2026 -
Majid Dejagah Gostaresh Foulad Aktiv 116 / 126 40% 1 27.10.2026 -
Gustavo Silva Juventude Aktiv 134 / 125 40% 2 24.10.2026 -
Sem Westerveld Zaragoza Aktiv 118 / 121 40% 1 22.10.2026 -
Heorhii Yermakov Metalist Aktiv 122 / 115 40% 1 22.10.2026 -
Jonás Acevedo Instituto Aktiv 116 / 117 40% 2 20.10.2026 -
Figueiredo Alverca Aktiv 112 / 122 40% 4 18.10.2026 -
Murphy Cooper Plymouth Argyle Aktiv 101 / 118 40% 1 18.10.2026 -
Tadeo Allende Inter Miami CF Aktiv 123 / 118 40% 1 16.10.2026 -
Alfredo Morelos Atletico Nacional Aktiv 122 / 127 40% 1 16.10.2026 -
Pol Tristán Bradford City Aktiv 96 / 115 40% 2 15.10.2026 -
Egoitz Arana Real Sociedad Aktiv 98 / 105 40% 1 15.10.2026 -
Rafik Guitane Estoril Praia Aktiv 118 / 123 40% 1 10.10.2026 -
Francis Amuzu Grêmio Aktiv 142 / 130 40% 1 10.10.2026 -
Sam Tickle Wigan Athletic Aktiv 137 / 128 40% 7 06.10.2026 -
Mamour N'Diaye Sarpsborg 08 Aktiv 111 / 131 40% 1 05.10.2026 -
Nicolás Fernández Belgrano Aktiv 138 / 128 40% 2 02.10.2026 -
Robin Risser RC Lens Aktiv 136 / 135 40% 1 02.10.2026 -
Santiago Rodríguez Gimnasia y Esgrima Aktiv 112 / 120 40% 1 30.09.2026 -
Radek Vítek Middlesbrough Aktiv 124 / 140 40% 1 30.09.2026 -
Antonín Kinský Tottenham Aktiv 148 / 145 40% 1 29.09.2026 -
Cezary Miszta Rio Ave Aktiv 112 / 131 40% 2 27.09.2026 -
Dejan Joveljić Seattle Sounders Aktiv 125 / 136 40% 2 27.09.2026 -
Henrique Araújo Casa Pia Aktiv 102 / 114 40% 2 27.09.2026 -
Daniil Khudyakov Sturm Graz Aktiv 104 / 122 40% 2 27.09.2026 -
Claudio Spinelli Vasco da Gama Aktiv 119 / 124 40% 3 23.09.2026 -
Nikita Kokarev Krylya Sovetov Aktiv 107 / 126 40% 1 20.09.2026 -
Deniz Gül Porto Aktiv 126 / 133 40% 1 17.09.2026 -
João Klauss LA Galaxy Aktiv 129 / 118 40% 1 16.09.2026 -
Antonio Gomis Vizela Aktiv 131 / 115 40% 1 16.09.2026 -
Santiago Montiel Independiente Aktiv 116 / 121 40% 1 14.09.2026 -
Martinelli Fluminense Aktiv 150 / 146 40% 1 14.09.2026 -
Germán Berterame Inter Miami CF Aktiv 116 / 132 40% 1 13.09.2026 -
Gabriel Veron Porto Aktiv 111 / 120 40% 1 10.09.2026 -
Fotis Ioannidis Sporting CP Aktiv 149 / 130 40% 2 09.09.2026 -
George Wickens Lincoln City Aktiv 104 / 110 40% 1 09.09.2026 -
Cheikh Sabaly Vancouver Whitecaps Aktiv 106 / 121 40% 1 07.09.2026 -
Anthoni Internacional Aktiv 115 / 113 40% 2 06.09.2026 -
Martín Ojeda Orlando City Aktiv 142 / 135 40% 1 02.09.2026 -
Vitor Roque Palmeiras Aktiv 132 / 145 40% 1 31.08.2026 -
Antonio Sanabria Internacional Aktiv 124 / 126 40% 1 29.08.2026 -
Arthur Okonkwo Wrexham Aktiv 122 / 127 40% 1 29.08.2026 -
Sebastian Hernandez Cortulua Aktiv 119 / 121 40% 1 28.08.2026 -
Luca Orellano Monterrey Aktiv 116 / 142 40% 1 26.08.2026 -
Jonathan Fischer FC Metz Aktiv 137 / 129 40% 1 25.08.2026 -
Rafael Santos Borré River Plate Aktiv 129 / 129 40% 1 23.08.2026 -
Héctor Hernández Gil Vicente Aktiv 114 / 132 40% 1 22.08.2026 -
Diber Cambindo Leon Aktiv 133 / 120 40% 1 21.08.2026 -
Gabriel Silva Braga Aktiv 135 / 125 40% 1 17.08.2026 -
Isidro Pitta Bragantino Aktiv 123 / 126 40% 1 12.08.2026 -
Luis Amarilla Cerro Porteno Aktiv 121 / 124 40% 1 12.08.2026 -
Toby Steward Portsmouth Aktiv 86 / 110 40% 1 12.08.2026 -
Diego Rossi Monterrey Aktiv 148 / 133 40% 1 09.08.2026 -
Marcus Ingvartsen San Diego Football Club Aktiv 132 / 121 40% 1 07.08.2026 -
Sam Surridge Nashville SC Aktiv 113 / 128 40% 1 05.08.2026 -
Gino Santilli Banfield Aktiv 100 / 117 40% 1 05.08.2026 -
Victor Aznar Cádiz Aktiv 117 / 132 40% 1 05.08.2026 -
Tamás Szűcs Famalicao Aktiv 113 / 118 40% 1 02.08.2026 -
Ricardo Horta Braga Aktiv 143 / 137 40% 1 01.08.2026 -